sensor_id;sensor_type;location;lat;lon;timestamp;pressure;altitude;pressure_sealevel;temperature;humidity
70921;BME280;58572;48.110;19.838;2023-11-25T00:02:05;95884.97;;;3.98;77.41
70921;BME280;58572;48.110;19.838;2023-11-25T00:04:32;95899.16;;;4.22;76.49
70921;BME280;58572;48.110;19.838;2023-11-25T00:06:59;95908.13;;;3.75;78.20
70921;BME280;58572;48.110;19.838;2023-11-25T00:09:26;95901.50;;;4.29;76.72
70921;BME280;58572;48.110;19.838;2023-11-25T00:11:53;95885.78;;;3.98;77.35
70921;BME280;58572;48.110;19.838;2023-11-25T00:14:20;95884.31;;;3.87;78.32
70921;BME280;58572;48.110;19.838;2023-11-25T00:16:49;95895.59;;;4.08;76.99
70921;BME280;58572;48.110;19.838;2023-11-25T00:19:16;95910.44;;;4.24;76.79
70921;BME280;58572;48.110;19.838;2023-11-25T00:21:43;95903.72;;;4.03;76.96
70921;BME280;58572;48.110;19.838;2023-11-25T00:24:11;95892.34;;;4.30;76.58
70921;BME280;58572;48.110;19.838;2023-11-25T00:26:38;95890.03;;;4.56;74.95
70921;BME280;58572;48.110;19.838;2023-11-25T00:29:05;95844.94;;;3.77;76.84
70921;BME280;58572;48.110;19.838;2023-11-25T00:31:34;95889.94;;;4.28;76.22
70921;BME280;58572;48.110;19.838;2023-11-25T00:34:03;95879.75;;;4.25;76.82
70921;BME280;58572;48.110;19.838;2023-11-25T00:36:30;95882.81;;;4.37;75.92
70921;BME280;58572;48.110;19.838;2023-11-25T00:38:57;95878.94;;;4.06;77.15
70921;BME280;58572;48.110;19.838;2023-11-25T00:41:25;95870.53;;;4.31;75.62
70921;BME280;58572;48.110;19.838;2023-11-25T00:43:52;95876.91;;;3.98;76.71
70921;BME280;58572;48.110;19.838;2023-11-25T00:46:19;95877.13;;;4.01;76.68
70921;BME280;58572;48.110;19.838;2023-11-25T00:48:46;95884.22;;;3.31;79.75
70921;BME280;58572;48.110;19.838;2023-11-25T00:51:15;95863.66;;;3.64;78.45
70921;BME280;58572;48.110;19.838;2023-11-25T00:53:43;95876.13;;;3.55;78.40
70921;BME280;58572;48.110;19.838;2023-11-25T00:56:10;95862.88;;;4.01;77.31
70921;BME280;58572;48.110;19.838;2023-11-25T00:58:37;95876.13;;;3.07;81.06
70921;BME280;58572;48.110;19.838;2023-11-25T01:01:04;95867.16;;;3.64;78.58
70921;BME280;58572;48.110;19.838;2023-11-25T01:03:31;95884.56;;;3.48;78.28
70921;BME280;58572;48.110;19.838;2023-11-25T01:05:58;95878.34;;;3.71;77.36
70921;BME280;58572;48.110;19.838;2023-11-25T01:08:28;95883.81;;;3.18;79.33
70921;BME280;58572;48.110;19.838;2023-11-25T01:10:55;95875.38;;;3.92;76.95
70921;BME280;58572;48.110;19.838;2023-11-25T01:13:22;95883.69;;;3.29;79.38
70921;BME280;58572;48.110;19.838;2023-11-25T01:15:49;95875.78;;;2.89;80.65
70921;BME280;58572;48.110;19.838;2023-11-25T01:18:17;95880.13;;;3.57;78.45
70921;BME280;58572;48.110;19.838;2023-11-25T01:20:44;95883.81;;;3.42;78.39
70921;BME280;58572;48.110;19.838;2023-11-25T01:23:11;95878.06;;;3.73;78.34
70921;BME280;58572;48.110;19.838;2023-11-25T01:25:40;95891.28;;;2.35;82.81
70921;BME280;58572;48.110;19.838;2023-11-25T01:28:07;95891.06;;;3.42;79.10
70921;BME280;58572;48.110;19.838;2023-11-25T01:30:34;95875.72;;;3.66;77.73
70921;BME280;58572;48.110;19.838;2023-11-25T01:33:04;95874.63;;;3.67;78.25
70921;BME280;58572;48.110;19.838;2023-11-25T01:35:32;95865.94;;;3.75;78.03
70921;BME280;58572;48.110;19.838;2023-11-25T01:37:59;95858.66;;;3.95;76.86
70921;BME280;58572;48.110;19.838;2023-11-25T01:40:26;95860.78;;;3.79;76.80
70921;BME280;58572;48.110;19.838;2023-11-25T01:42:57;95869.28;;;4.05;77.13
70921;BME280;58572;48.110;19.838;2023-11-25T01:45:24;95850.91;;;3.74;77.56
70921;BME280;58572;48.110;19.838;2023-11-25T01:47:52;95850.75;;;4.03;76.70
70921;BME280;58572;48.110;19.838;2023-11-25T01:50:20;95846.47;;;4.21;75.86
70921;BME280;58572;48.110;19.838;2023-11-25T01:52:48;95836.94;;;4.10;75.96
70921;BME280;58572;48.110;19.838;2023-11-25T01:55:17;95831.28;;;4.30;75.41
70921;BME280;58572;48.110;19.838;2023-11-25T01:57:44;95835.63;;;4.07;76.86
70921;BME280;58572;48.110;19.838;2023-11-25T02:00:14;95833.38;;;3.96;75.23
70921;BME280;58572;48.110;19.838;2023-11-25T02:02:42;95825.63;;;3.94;76.79
70921;BME280;58572;48.110;19.838;2023-11-25T02:05:09;95825.25;;;4.20;75.21
70921;BME280;58572;48.110;19.838;2023-11-25T02:07:36;95851.59;;;3.18;80.11
70921;BME280;58572;48.110;19.838;2023-11-25T02:10:04;95842.09;;;3.50;78.02
70921;BME280;58572;48.110;19.838;2023-11-25T02:12:32;95845.81;;;3.92;76.66
70921;BME280;58572;48.110;19.838;2023-11-25T02:15:00;95845.22;;;4.13;76.17
70921;BME280;58572;48.110;19.838;2023-11-25T02:17:30;95841.22;;;3.73;77.38
70921;BME280;58572;48.110;19.838;2023-11-25T02:19:57;95845.50;;;2.84;80.55
70921;BME280;58572;48.110;19.838;2023-11-25T02:22:26;95843.09;;;3.54;78.73
70921;BME280;58572;48.110;19.838;2023-11-25T02:24:54;95853.00;;;3.77;77.62
70921;BME280;58572;48.110;19.838;2023-11-25T02:27:21;95844.66;;;4.16;75.88
70921;BME280;58572;48.110;19.838;2023-11-25T02:29:49;95843.75;;;3.46;77.60
70921;BME280;58572;48.110;19.838;2023-11-25T02:32:17;95856.75;;;3.58;78.02
70921;BME280;58572;48.110;19.838;2023-11-25T02:34:44;95848.50;;;3.73;77.93
70921;BME280;58572;48.110;19.838;2023-11-25T02:37:12;95850.41;;;2.48;79.98
70921;BME280;58572;48.110;19.838;2023-11-25T02:39:41;95850.56;;;3.14;80.16
70921;BME280;58572;48.110;19.838;2023-11-25T02:42:10;95851.91;;;3.60;78.43
70921;BME280;58572;48.110;19.838;2023-11-25T02:44:39;95866.50;;;2.77;81.42
70921;BME280;58572;48.110;19.838;2023-11-25T02:47:06;95862.13;;;3.15;79.95
70921;BME280;58572;48.110;19.838;2023-11-25T02:49:33;95862.75;;;3.02;80.49
70921;BME280;58572;48.110;19.838;2023-11-25T02:52:01;95856.59;;;3.01;80.94
70921;BME280;58572;48.110;19.838;2023-11-25T02:54:30;95848.91;;;3.61;77.98
70921;BME280;58572;48.110;19.838;2023-11-25T02:56:57;95841.28;;;2.78;79.59
70921;BME280;58572;48.110;19.838;2023-11-25T02:59:26;95832.94;;;2.79;80.11
70921;BME280;58572;48.110;19.838;2023-11-25T03:01:53;95848.72;;;2.57;82.37
70921;BME280;58572;48.110;19.838;2023-11-25T03:04:21;95848.25;;;3.50;79.14
70921;BME280;58572;48.110;19.838;2023-11-25T03:06:52;95866.78;;;3.28;79.26
70921;BME280;58572;48.110;19.838;2023-11-25T03:09:19;95879.88;;;3.77;77.91
70921;BME280;58572;48.110;19.838;2023-11-25T03:11:47;95881.59;;;2.97;80.15
70921;BME280;58572;48.110;19.838;2023-11-25T03:14:14;95880.38;;;3.37;77.81
70921;BME280;58572;48.110;19.838;2023-11-25T03:16:42;95878.41;;;3.66;77.29
70921;BME280;58572;48.110;19.838;2023-11-25T03:19:09;95883.44;;;3.73;77.63
70921;BME280;58572;48.110;19.838;2023-11-25T03:21:36;95882.84;;;3.76;77.33
70921;BME280;58572;48.110;19.838;2023-11-25T03:24:05;95896.03;;;2.09;80.06
70921;BME280;58572;48.110;19.838;2023-11-25T03:26:33;95907.44;;;2.24;82.69
70921;BME280;58572;48.110;19.838;2023-11-25T03:29:00;95904.84;;;3.35;79.14
70921;BME280;58572;48.110;19.838;2023-11-25T03:31:27;95898.56;;;3.21;77.95
70921;BME280;58572;48.110;19.838;2023-11-25T03:33:56;95897.13;;;3.29;78.34
70921;BME280;58572;48.110;19.838;2023-11-25T03:36:23;95897.22;;;3.66;77.36
70921;BME280;58572;48.110;19.838;2023-11-25T03:38:50;95886.41;;;3.71;76.96
70921;BME280;58572;48.110;19.838;2023-11-25T03:41:17;95888.81;;;3.73;76.90
70921;BME280;58572;48.110;19.838;2023-11-25T03:43:45;95884.91;;;3.84;75.92
70921;BME280;58572;48.110;19.838;2023-11-25T03:46:12;95897.00;;;3.63;77.16
70921;BME280;58572;48.110;19.838;2023-11-25T03:48:40;95891.66;;;3.81;76.66
70921;BME280;58572;48.110;19.838;2023-11-25T03:51:10;95900.22;;;3.83;73.75
70921;BME280;58572;48.110;19.838;2023-11-25T03:53:37;95899.63;;;2.91;78.06
70921;BME280;58572;48.110;19.838;2023-11-25T03:56:05;95898.50;;;2.97;78.17
70921;BME280;58572;48.110;19.838;2023-11-25T03:58:33;95907.28;;;2.79;79.69
70921;BME280;58572;48.110;19.838;2023-11-25T04:01:00;95906.28;;;3.28;78.32
70921;BME280;58572;48.110;19.838;2023-11-25T04:03:28;95901.28;;;3.64;76.98
70921;BME280;58572;48.110;19.838;2023-11-25T04:05:55;95899.97;;;3.61;77.19
70921;BME280;58572;48.110;19.838;2023-11-25T04:08:24;95901.41;;;3.53;76.69
70921;BME280;58572;48.110;19.838;2023-11-25T04:10:51;95896.31;;;3.52;77.23
70921;BME280;58572;48.110;19.838;2023-11-25T04:13:18;95904.47;;;3.66;75.49
70921;BME280;58572;48.110;19.838;2023-11-25T04:15:45;95903.28;;;3.53;77.55
70921;BME280;58572;48.110;19.838;2023-11-25T04:18:13;95919.94;;;3.02;77.36
70921;BME280;58572;48.110;19.838;2023-11-25T04:20:40;95903.47;;;3.38;77.17
70921;BME280;58572;48.110;19.838;2023-11-25T04:23:07;95905.94;;;3.05;78.18
70921;BME280;58572;48.110;19.838;2023-11-25T04:25:35;95912.72;;;3.27;77.83
70921;BME280;58572;48.110;19.838;2023-11-25T04:28:05;95911.19;;;3.20;77.95
70921;BME280;58572;48.110;19.838;2023-11-25T04:30:32;95912.63;;;3.37;77.06
70921;BME280;58572;48.110;19.838;2023-11-25T04:33:00;95917.63;;;3.19;77.44
70921;BME280;58572;48.110;19.838;2023-11-25T04:35:27;95928.72;;;3.13;78.43
70921;BME280;58572;48.110;19.838;2023-11-25T04:37:54;95922.72;;;2.92;78.14
70921;BME280;58572;48.110;19.838;2023-11-25T04:40:22;95916.63;;;3.10;78.44
70921;BME280;58572;48.110;19.838;2023-11-25T04:42:51;95926.56;;;2.81;76.12
70921;BME280;58572;48.110;19.838;2023-11-25T04:45:18;95936.41;;;2.91;78.71
70921;BME280;58572;48.110;19.838;2023-11-25T04:47:46;95929.50;;;2.50;76.68
70921;BME280;58572;48.110;19.838;2023-11-25T04:50:16;95923.44;;;1.90;80.27
70921;BME280;58572;48.110;19.838;2023-11-25T04:52:43;95922.00;;;3.10;78.14
70921;BME280;58572;48.110;19.838;2023-11-25T04:55:11;95928.34;;;2.62;78.67
70921;BME280;58572;48.110;19.838;2023-11-25T04:57:39;95938.00;;;2.23;79.13
70921;BME280;58572;48.110;19.838;2023-11-25T05:00:09;95920.34;;;2.85;78.62
70921;BME280;58572;48.110;19.838;2023-11-25T05:02:39;95931.06;;;2.56;79.13
70921;BME280;58572;48.110;19.838;2023-11-25T05:05:08;95860.16;;;2.68;78.06
70921;BME280;58572;48.110;19.838;2023-11-25T05:07:35;95917.19;;;1.51;80.99
70921;BME280;58572;48.110;19.838;2023-11-25T05:10:02;95908.06;;;2.50;79.77
70921;BME280;58572;48.110;19.838;2023-11-25T05:12:30;95913.53;;;2.98;78.10
70921;BME280;58572;48.110;19.838;2023-11-25T05:14:57;95911.31;;;3.05;77.63
70921;BME280;58572;48.110;19.838;2023-11-25T05:17:25;95906.91;;;3.19;77.25
70921;BME280;58572;48.110;19.838;2023-11-25T05:19:53;95902.97;;;3.07;77.84
70921;BME280;58572;48.110;19.838;2023-11-25T05:22:20;95902.44;;;3.34;76.45
70921;BME280;58572;48.110;19.838;2023-11-25T05:24:47;95896.28;;;3.04;77.94
70921;BME280;58572;48.110;19.838;2023-11-25T05:27:14;95874.50;;;2.82;77.26
70921;BME280;58572;48.110;19.838;2023-11-25T05:29:42;95906.59;;;2.92;77.98
70921;BME280;58572;48.110;19.838;2023-11-25T05:32:09;95905.44;;;3.03;77.60
70921;BME280;58572;48.110;19.838;2023-11-25T05:34:37;95898.56;;;2.92;77.43
70921;BME280;58572;48.110;19.838;2023-11-25T05:37:06;95903.41;;;2.90;78.10
70921;BME280;58572;48.110;19.838;2023-11-25T05:39:33;95902.41;;;3.10;77.53
70921;BME280;58572;48.110;19.838;2023-11-25T05:42:01;95898.78;;;3.25;76.41
70921;BME280;58572;48.110;19.838;2023-11-25T05:44:30;95892.53;;;3.05;76.82
70921;BME280;58572;48.110;19.838;2023-11-25T05:46:57;95896.34;;;2.99;77.12
70921;BME280;58572;48.110;19.838;2023-11-25T05:49:24;95900.22;;;2.88;77.57
70921;BME280;58572;48.110;19.838;2023-11-25T05:51:53;95901.72;;;2.99;76.71
70921;BME280;58572;48.110;19.838;2023-11-25T05:54:20;95904.56;;;2.50;74.27
70921;BME280;58572;48.110;19.838;2023-11-25T05:56:48;95918.03;;;2.01;78.67
70921;BME280;58572;48.110;19.838;2023-11-25T05:59:16;95917.06;;;2.31;77.75
70921;BME280;58572;48.110;19.838;2023-11-25T06:01:43;95918.53;;;2.81;76.77
70921;BME280;58572;48.110;19.838;2023-11-25T06:04:10;95917.78;;;2.75;78.06
70921;BME280;58572;48.110;19.838;2023-11-25T06:06:37;95920.16;;;2.77;77.48
70921;BME280;58572;48.110;19.838;2023-11-25T06:09:07;95919.59;;;2.80;77.57
70921;BME280;58572;48.110;19.838;2023-11-25T06:11:37;95915.41;;;2.69;77.55
70921;BME280;58572;48.110;19.838;2023-11-25T06:14:05;95918.56;;;2.76;74.81
70921;BME280;58572;48.110;19.838;2023-11-25T06:16:32;95923.41;;;2.74;77.21
70921;BME280;58572;48.110;19.838;2023-11-25T06:18:59;95926.25;;;2.53;75.66
70921;BME280;58572;48.110;19.838;2023-11-25T06:21:26;95934.88;;;2.50;77.69
70921;BME280;58572;48.110;19.838;2023-11-25T06:23:54;95935.38;;;2.52;77.49
70921;BME280;58572;48.110;19.838;2023-11-25T06:26:22;95940.03;;;2.42;77.61
70921;BME280;58572;48.110;19.838;2023-11-25T06:28:49;95943.41;;;2.58;77.21
70921;BME280;58572;48.110;19.838;2023-11-25T06:31:17;95927.97;;;2.39;77.58
70921;BME280;58572;48.110;19.838;2023-11-25T06:33:44;95941.56;;;2.53;76.93
70921;BME280;58572;48.110;19.838;2023-11-25T06:36:12;95939.56;;;2.69;77.12
70921;BME280;58572;48.110;19.838;2023-11-25T06:38:39;95953.91;;;2.05;75.37
70921;BME280;58572;48.110;19.838;2023-11-25T06:41:06;95947.56;;;2.40;75.55
70921;BME280;58572;48.110;19.838;2023-11-25T06:43:35;95956.88;;;2.47;77.14
70921;BME280;58572;48.110;19.838;2023-11-25T06:46:04;95961.72;;;2.45;74.92
70921;BME280;58572;48.110;19.838;2023-11-25T06:48:31;95962.06;;;2.34;77.25
70921;BME280;58572;48.110;19.838;2023-11-25T06:50:59;95966.75;;;2.13;78.07
70921;BME280;58572;48.110;19.838;2023-11-25T06:53:26;95959.00;;;2.50;77.03
70921;BME280;58572;48.110;19.838;2023-11-25T06:55:56;95951.09;;;2.69;76.56
70921;BME280;58572;48.110;19.838;2023-11-25T06:58:23;95946.19;;;2.76;76.20
70921;BME280;58572;48.110;19.838;2023-11-25T07:00:52;95951.72;;;2.56;76.44
70921;BME280;58572;48.110;19.838;2023-11-25T07:03:23;95956.16;;;2.71;75.87
70921;BME280;58572;48.110;19.838;2023-11-25T07:05:50;95969.88;;;2.69;76.01
70921;BME280;58572;48.110;19.838;2023-11-25T07:08:17;95970.75;;;2.60;76.90
70921;BME280;58572;48.110;19.838;2023-11-25T07:10:44;95972.16;;;2.86;76.22
70921;BME280;58572;48.110;19.838;2023-11-25T07:13:19;95975.50;;;2.68;75.51
70921;BME280;58572;48.110;19.838;2023-11-25T07:15:46;95914.97;;;2.22;76.98
70921;BME280;58572;48.110;19.838;2023-11-25T07:18:15;95978.25;;;2.18;77.44
70921;BME280;58572;48.110;19.838;2023-11-25T07:20:46;95963.19;;;2.28;77.46
70921;BME280;58572;48.110;19.838;2023-11-25T07:23:13;95975.50;;;2.68;75.57
70921;BME280;58572;48.110;19.838;2023-11-25T07:25:40;95982.81;;;2.18;78.51
70921;BME280;58572;48.110;19.838;2023-11-25T07:28:10;95971.59;;;2.11;78.99
70921;BME280;58572;48.110;19.838;2023-11-25T07:30:39;95977.81;;;2.45;77.61
70921;BME280;58572;48.110;19.838;2023-11-25T07:33:07;95973.81;;;2.43;77.92
70921;BME280;58572;48.110;19.838;2023-11-25T07:35:36;95962.63;;;2.70;76.62
70921;BME280;58572;48.110;19.838;2023-11-25T07:38:04;95964.94;;;2.47;75.96
70921;BME280;58572;48.110;19.838;2023-11-25T07:40:31;95964.03;;;2.91;75.67
70921;BME280;58572;48.110;19.838;2023-11-25T07:42:58;95967.13;;;2.74;75.36
70921;BME280;58572;48.110;19.838;2023-11-25T07:45:25;95972.31;;;2.66;75.12
70921;BME280;58572;48.110;19.838;2023-11-25T07:47:52;95974.09;;;2.41;77.21
70921;BME280;58572;48.110;19.838;2023-11-25T07:50:19;95960.06;;;2.10;77.12
70921;BME280;58572;48.110;19.838;2023-11-25T07:52:49;95932.00;;;1.92;77.70
70921;BME280;58572;48.110;19.838;2023-11-25T07:55:17;95947.03;;;2.38;77.16
70921;BME280;58572;48.110;19.838;2023-11-25T07:57:46;95898.06;;;1.78;77.33
70921;BME280;58572;48.110;19.838;2023-11-25T08:00:15;95956.09;;;2.47;76.88
70921;BME280;58572;48.110;19.838;2023-11-25T08:02:44;95979.72;;;1.85;79.06
70921;BME280;58572;48.110;19.838;2023-11-25T08:05:11;95976.09;;;2.20;77.53
70921;BME280;58572;48.110;19.838;2023-11-25T08:07:48;95947.69;;;1.60;79.09
70921;BME280;58572;48.110;19.838;2023-11-25T08:10:16;95979.53;;;2.26;79.31
70921;BME280;58572;48.110;19.838;2023-11-25T08:12:43;95976.34;;;2.24;77.68
70921;BME280;58572;48.110;19.838;2023-11-25T08:15:11;95974.78;;;2.13;78.69
70921;BME280;58572;48.110;19.838;2023-11-25T08:17:39;95983.72;;;2.42;77.03
70921;BME280;58572;48.110;19.838;2023-11-25T08:20:07;95985.09;;;2.40;77.42
70921;BME280;58572;48.110;19.838;2023-11-25T08:22:36;95981.22;;;1.42;80.87
70921;BME280;58572;48.110;19.838;2023-11-25T08:25:06;95987.94;;;2.04;79.27
70921;BME280;58572;48.110;19.838;2023-11-25T08:27:34;95982.44;;;1.80;80.38
70921;BME280;58572;48.110;19.838;2023-11-25T08:30:02;95983.97;;;1.97;79.64
70921;BME280;58572;48.110;19.838;2023-11-25T08:32:32;96003.44;;;1.43;82.40
70921;BME280;58572;48.110;19.838;2023-11-25T08:35:00;95992.03;;;1.91;80.36
70921;BME280;58572;48.110;19.838;2023-11-25T08:37:27;95989.03;;;1.98;80.71
70921;BME280;58572;48.110;19.838;2023-11-25T08:39:54;95993.84;;;2.01;80.56
70921;BME280;58572;48.110;19.838;2023-11-25T08:42:23;95996.16;;;2.67;77.73
70921;BME280;58572;48.110;19.838;2023-11-25T08:57:07;95990.84;;;2.18;83.77
70921;BME280;58572;48.110;19.838;2023-11-25T08:59:35;95991.41;;;2.93;80.69
70921;BME280;58572;48.110;19.838;2023-11-25T09:02:04;95996.09;;;2.38;81.32
70921;BME280;58572;48.110;19.838;2023-11-25T09:04:34;96001.97;;;2.40;82.05
70921;BME280;58572;48.110;19.838;2023-11-25T09:07:03;95997.84;;;2.14;82.90
70921;BME280;58572;48.110;19.838;2023-11-25T09:09:33;95994.59;;;2.95;79.69
70921;BME280;58572;48.110;19.838;2023-11-25T09:12:01;95990.31;;;2.94;79.33
70921;BME280;58572;48.110;19.838;2023-11-25T09:14:30;95993.84;;;3.24;78.30
70921;BME280;58572;48.110;19.838;2023-11-25T09:16:57;96004.34;;;3.49;77.24
70921;BME280;58572;48.110;19.838;2023-11-25T09:19:24;96007.06;;;3.44;79.53
70921;BME280;58572;48.110;19.838;2023-11-25T09:21:52;96008.03;;;2.95;79.65
70921;BME280;58572;48.110;19.838;2023-11-25T09:24:20;96003.78;;;3.23;78.77
70921;BME280;58572;48.110;19.838;2023-11-25T09:26:47;96009.53;;;4.12;78.61
70921;BME280;58572;48.110;19.838;2023-11-25T09:29:14;95961.91;;;3.94;76.10
70921;BME280;58572;48.110;19.838;2023-11-25T09:31:42;96003.47;;;3.53;77.39
70921;BME280;58572;48.110;19.838;2023-11-25T09:34:09;96001.19;;;3.90;77.26
70921;BME280;58572;48.110;19.838;2023-11-25T09:36:37;96002.47;;;4.16;75.95
70921;BME280;58572;48.110;19.838;2023-11-25T09:39:05;95997.88;;;3.98;77.78
70921;BME280;58572;48.110;19.838;2023-11-25T09:41:35;95995.72;;;3.52;76.83
70921;BME280;58572;48.110;19.838;2023-11-25T09:44:03;95986.09;;;3.94;77.56
70921;BME280;58572;48.110;19.838;2023-11-25T09:46:33;95986.72;;;3.85;77.42
70921;BME280;58572;48.110;19.838;2023-11-25T09:49:01;95982.78;;;3.78;78.14
70921;BME280;58572;48.110;19.838;2023-11-25T09:51:31;95976.16;;;3.94;76.37
70921;BME280;58572;48.110;19.838;2023-11-25T09:54:03;95977.16;;;3.98;76.46
70921;BME280;58572;48.110;19.838;2023-11-25T09:56:34;95957.88;;;3.48;78.31
70921;BME280;58572;48.110;19.838;2023-11-25T09:59:02;95910.81;;;3.75;76.65
70921;BME280;58572;48.110;19.838;2023-11-25T10:01:30;95968.03;;;3.75;75.45
70921;BME280;58572;48.110;19.838;2023-11-25T10:03:58;95960.44;;;4.25;74.77
70921;BME280;58572;48.110;19.838;2023-11-25T10:06:30;95962.88;;;4.03;75.72
70921;BME280;58572;48.110;19.838;2023-11-25T10:08:57;95964.53;;;3.99;75.83
70921;BME280;58572;48.110;19.838;2023-11-25T10:11:24;95966.47;;;4.17;74.89
70921;BME280;58572;48.110;19.838;2023-11-25T10:13:52;95971.78;;;3.98;76.08
70921;BME280;58572;48.110;19.838;2023-11-25T10:16:26;95970.03;;;4.31;73.96
70921;BME280;58572;48.110;19.838;2023-11-25T10:18:53;95972.34;;;3.76;76.57
70921;BME280;58572;48.110;19.838;2023-11-25T10:21:22;95973.84;;;4.06;75.85
70921;BME280;58572;48.110;19.838;2023-11-25T10:23:52;95991.47;;;3.46;77.88
70921;BME280;58572;48.110;19.838;2023-11-25T10:26:20;95982.13;;;4.10;77.36
70921;BME280;58572;48.110;19.838;2023-11-25T10:28:48;95994.94;;;3.23;78.49
70921;BME280;58572;48.110;19.838;2023-11-25T10:31:15;95992.75;;;3.77;77.38
70921;BME280;58572;48.110;19.838;2023-11-25T10:33:42;95986.09;;;3.46;75.37
70921;BME280;58572;48.110;19.838;2023-11-25T10:36:09;95987.78;;;3.66;75.93
70921;BME280;58572;48.110;19.838;2023-11-25T10:38:39;95967.34;;;3.89;73.89
70921;BME280;58572;48.110;19.838;2023-11-25T10:41:10;95982.53;;;4.22;74.37
70921;BME280;58572;48.110;19.838;2023-11-25T10:43:38;95976.66;;;4.58;73.67
70921;BME280;58572;48.110;19.838;2023-11-25T10:46:06;95976.22;;;4.51;74.04
70921;BME280;58572;48.110;19.838;2023-11-25T10:48:34;95862.16;;;3.34;75.46
70921;BME280;58572;48.110;19.838;2023-11-25T10:51:02;95980.81;;;4.50;74.50
70921;BME280;58572;48.110;19.838;2023-11-25T10:53:30;95971.13;;;4.68;74.19
70921;BME280;58572;48.110;19.838;2023-11-25T10:55:59;95975.78;;;4.43;75.22
70921;BME280;58572;48.110;19.838;2023-11-25T10:58:28;95975.56;;;4.59;75.96
70921;BME280;58572;48.110;19.838;2023-11-25T11:00:56;95979.72;;;4.51;73.51
70921;BME280;58572;48.110;19.838;2023-11-25T11:03:32;95965.03;;;5.27;73.91
70921;BME280;58572;48.110;19.838;2023-11-25T11:06:11;95965.38;;;5.53;72.01
70921;BME280;58572;48.110;19.838;2023-11-25T11:08:45;95960.59;;;4.53;74.15
70921;BME280;58572;48.110;19.838;2023-11-25T11:11:16;95958.00;;;5.12;73.14
70921;BME280;58572;48.110;19.838;2023-11-25T11:13:52;95942.84;;;5.17;72.79
70921;BME280;58572;48.110;19.838;2023-11-25T11:16:30;95952.13;;;5.70;70.37
70921;BME280;58572;48.110;19.838;2023-11-25T11:19:01;95953.91;;;5.61;71.39
70921;BME280;58572;48.110;19.838;2023-11-25T11:21:34;95953.41;;;5.59;70.42
70921;BME280;58572;48.110;19.838;2023-11-25T11:24:03;95966.09;;;5.72;71.37
70921;BME280;58572;48.110;19.838;2023-11-25T11:26:33;95957.75;;;5.28;73.09
70921;BME280;58572;48.110;19.838;2023-11-25T11:29:10;95953.91;;;5.61;70.04
70921;BME280;58572;48.110;19.838;2023-11-25T11:32:00;95963.00;;;5.19;71.29
70921;BME280;58572;48.110;19.838;2023-11-25T11:34:29;95960.22;;;4.59;75.97
70921;BME280;58572;48.110;19.838;2023-11-25T11:36:57;95965.28;;;4.79;76.42
70921;BME280;58572;48.110;19.838;2023-11-25T11:39:39;95963.25;;;4.71;76.57
70921;BME280;58572;48.110;19.838;2023-11-25T11:42:26;95960.66;;;5.31;71.12
70921;BME280;58572;48.110;19.838;2023-11-25T11:44:57;95935.84;;;5.02;75.02
70921;BME280;58572;48.110;19.838;2023-11-25T11:47:34;95950.53;;;5.97;70.77
70921;BME280;58572;48.110;19.838;2023-11-25T11:50:02;95952.91;;;5.85;70.67
70921;BME280;58572;48.110;19.838;2023-11-25T11:52:34;95950.50;;;5.69;72.39
70921;BME280;58572;48.110;19.838;2023-11-25T11:55:35;95949.50;;;5.38;70.57
70921;BME280;58572;48.110;19.838;2023-11-25T11:58:08;95938.53;;;5.48;69.53
70921;BME280;58572;48.110;19.838;2023-11-25T12:00:45;95940.41;;;5.89;69.76
70921;BME280;58572;48.110;19.838;2023-11-25T12:03:13;95938.72;;;5.38;70.24
70921;BME280;58572;48.110;19.838;2023-11-25T12:05:40;95931.31;;;5.30;72.68
70921;BME280;58572;48.110;19.838;2023-11-25T12:08:08;95925.28;;;5.19;72.11
70921;BME280;58572;48.110;19.838;2023-11-25T12:10:35;95935.13;;;5.29;70.41
70921;BME280;58572;48.110;19.838;2023-11-25T12:13:03;95944.00;;;4.97;71.41
70921;BME280;58572;48.110;19.838;2023-11-25T12:15:31;95948.50;;;5.34;68.88
70921;BME280;58572;48.110;19.838;2023-11-25T12:18:01;95944.44;;;5.18;66.89
70921;BME280;58572;48.110;19.838;2023-11-25T12:20:29;95946.69;;;5.29;69.69
70921;BME280;58572;48.110;19.838;2023-11-25T12:22:56;95944.09;;;5.24;68.54
70921;BME280;58572;48.110;19.838;2023-11-25T12:25:27;95955.22;;;4.85;70.06
70921;BME280;58572;48.110;19.838;2023-11-25T12:28:04;95957.69;;;5.33;67.42
70921;BME280;58572;48.110;19.838;2023-11-25T12:30:33;95955.88;;;5.28;68.24
70921;BME280;58572;48.110;19.838;2023-11-25T12:33:03;95953.88;;;5.34;68.72
70921;BME280;58572;48.110;19.838;2023-11-25T12:35:32;95962.75;;;4.69;71.12
70921;BME280;58572;48.110;19.838;2023-11-25T12:37:59;95965.22;;;4.66;71.41
70921;BME280;58572;48.110;19.838;2023-11-25T12:40:27;95972.22;;;4.29;73.10
70921;BME280;58572;48.110;19.838;2023-11-25T12:42:56;95974.16;;;3.57;77.15
70921;BME280;58572;48.110;19.838;2023-11-25T12:45:30;95964.94;;;4.48;74.54
70921;BME280;58572;48.110;19.838;2023-11-25T12:47:58;95973.84;;;4.06;74.35
70921;BME280;58572;48.110;19.838;2023-11-25T12:50:27;95966.91;;;4.62;75.15
70921;BME280;58572;48.110;19.838;2023-11-25T12:53:06;95962.88;;;4.78;74.85
70921;BME280;58572;48.110;19.838;2023-11-25T12:55:38;95965.34;;;4.93;72.10
70921;BME280;58572;48.110;19.838;2023-11-25T12:58:10;95951.81;;;5.12;66.99
70921;BME280;58572;48.110;19.838;2023-11-25T13:00:41;95968.75;;;4.99;72.95
70921;BME280;58572;48.110;19.838;2023-11-25T13:03:10;95971.94;;;5.33;70.30
70921;BME280;58572;48.110;19.838;2023-11-25T13:05:39;95966.75;;;5.37;70.05
70921;BME280;58572;48.110;19.838;2023-11-25T13:08:26;95976.25;;;5.48;67.59
70921;BME280;58572;48.110;19.838;2023-11-25T13:10:55;95979.88;;;5.85;64.43
70921;BME280;58572;48.110;19.838;2023-11-25T13:13:24;95996.09;;;5.38;66.39
70921;BME280;58572;48.110;19.838;2023-11-25T13:15:51;96006.88;;;4.87;68.80
70921;BME280;58572;48.110;19.838;2023-11-25T13:18:20;96010.25;;;4.79;70.05
70921;BME280;58572;48.110;19.838;2023-11-25T13:20:50;96016.94;;;4.81;69.49